sensor_id;sensor_type;location;lat;lon;timestamp;temperature;humidity
57719;DHT22;43561;50.090;18.522;2024-03-23T00:52:51;10.30;99.90
57719;DHT22;43561;50.090;18.522;2024-03-23T01:02:52;10.30;99.90
57719;DHT22;43561;50.090;18.522;2024-03-23T01:12:53;10.30;99.90
57719;DHT22;43561;50.090;18.522;2024-03-23T01:22:54;10.30;99.90
57719;DHT22;43561;50.090;18.522;2024-03-23T01:32:56;10.30;99.90
57719;DHT22;43561;50.090;18.522;2024-03-23T01:42:58;10.30;99.90
57719;DHT22;43561;50.090;18.522;2024-03-23T01:53:04;10.30;99.90
57719;DHT22;43561;50.090;18.522;2024-03-23T02:03:27;10.20;99.90
57719;DHT22;43561;50.090;18.522;2024-03-23T02:13:28;10.20;99.90
57719;DHT22;43561;50.090;18.522;2024-03-23T02:23:29;10.20;99.90
57719;DHT22;43561;50.090;18.522;2024-03-23T02:33:31;10.10;99.90
57719;DHT22;43561;50.090;18.522;2024-03-23T02:43:32;10.20;99.90
57719;DHT22;43561;50.090;18.522;2024-03-23T02:53:33;10.20;99.90
57719;DHT22;43561;50.090;18.522;2024-03-23T03:03:35;10.20;99.90
57719;DHT22;43561;50.090;18.522;2024-03-23T03:13:36;10.00;99.90
57719;DHT22;43561;50.090;18.522;2024-03-23T03:23:38;9.90;99.90
57719;DHT22;43561;50.090;18.522;2024-03-23T03:33:39;9.90;99.90
57719;DHT22;43561;50.090;18.522;2024-03-23T03:43:40;9.80;99.90
57719;DHT22;43561;50.090;18.522;2024-03-23T03:53:42;9.70;99.90
57719;DHT22;43561;50.090;18.522;2024-03-23T04:03:43;9.60;99.90
57719;DHT22;43561;50.090;18.522;2024-03-23T04:13:44;9.60;99.90
57719;DHT22;43561;50.090;18.522;2024-03-23T04:23:46;9.60;99.90
57719;DHT22;43561;50.090;18.522;2024-03-23T04:33:47;9.60;99.90
57719;DHT22;43561;50.090;18.522;2024-03-23T04:43:48;9.60;99.90
57719;DHT22;43561;50.090;18.522;2024-03-23T04:53:49;9.60;99.90
57719;DHT22;43561;50.090;18.522;2024-03-23T05:03:51;9.60;99.90
57719;DHT22;43561;50.090;18.522;2024-03-23T05:13:52;9.70;99.90
57719;DHT22;43561;50.090;18.522;2024-03-23T05:23:54;9.70;99.90
57719;DHT22;43561;50.090;18.522;2024-03-23T05:33:55;9.80;99.90
57719;DHT22;43561;50.090;18.522;2024-03-23T05:43:56;9.70;99.90
57719;DHT22;43561;50.090;18.522;2024-03-23T05:53:57;9.70;99.90
57719;DHT22;43561;50.090;18.522;2024-03-23T06:03:59;9.80;99.90
57719;DHT22;43561;50.090;18.522;2024-03-23T06:14:00;10.00;99.90
57719;DHT22;43561;50.090;18.522;2024-03-23T06:24:02;10.30;99.90
57719;DHT22;43561;50.090;18.522;2024-03-23T06:34:02;10.50;99.90
57719;DHT22;43561;50.090;18.522;2024-03-23T06:44:03;10.80;99.90
57719;DHT22;43561;50.090;18.522;2024-03-23T06:54:05;10.80;99.90
57719;DHT22;43561;50.090;18.522;2024-03-23T07:04:06;11.40;99.90
57719;DHT22;43561;50.090;18.522;2024-03-23T07:14:07;13.20;99.90
57719;DHT22;43561;50.090;18.522;2024-03-23T07:24:08;13.50;99.90
57719;DHT22;43561;50.090;18.522;2024-03-23T07:34:12;14.70;97.90
57719;DHT22;43561;50.090;18.522;2024-03-23T07:44:13;15.80;94.90
57719;DHT22;43561;50.090;18.522;2024-03-23T07:54:18;16.60;83.50
57719;DHT22;43561;50.090;18.522;2024-03-23T08:04:20;17.10;77.90
57719;DHT22;43561;50.090;18.522;2024-03-23T08:14:21;17.40;76.30
57719;DHT22;43561;50.090;18.522;2024-03-23T08:24:22;17.70;69.70
57719;DHT22;43561;50.090;18.522;2024-03-23T08:34:26;17.00;70.40
57719;DHT22;43561;50.090;18.522;2024-03-23T08:44:28;16.80;69.10
57719;DHT22;43561;50.090;18.522;2024-03-23T08:54:29;17.00;65.70
57719;DHT22;43561;50.090;18.522;2024-03-23T09:04:32;16.80;63.70
57719;DHT22;43561;50.090;18.522;2024-03-23T09:14:34;17.70;62.90
57719;DHT22;43561;50.090;18.522;2024-03-23T09:24:36;17.90;61.30
57719;DHT22;43561;50.090;18.522;2024-03-23T09:34:40;18.40;60.40
57719;DHT22;43561;50.090;18.522;2024-03-23T09:44:42;18.90;58.80
57719;DHT22;43561;50.090;18.522;2024-03-23T09:54:43;19.60;58.00
57719;DHT22;43561;50.090;18.522;2024-03-23T10:04:44;19.70;58.20
57719;DHT22;43561;50.090;18.522;2024-03-23T10:14:45;19.90;55.90
57719;DHT22;43561;50.090;18.522;2024-03-23T10:24:47;20.20;54.70
57719;DHT22;43561;50.090;18.522;2024-03-23T10:34:48;20.10;54.70
57719;DHT22;43561;50.090;18.522;2024-03-23T10:44:49;20.30;54.20
57719;DHT22;43561;50.090;18.522;2024-03-23T10:54:53;20.80;53.80
57719;DHT22;43561;50.090;18.522;2024-03-23T11:04:56;20.70;53.80
57719;DHT22;43561;50.090;18.522;2024-03-23T11:15:11;20.80;53.60
57719;DHT22;43561;50.090;18.522;2024-03-23T11:45:28;20.80;51.30
57719;DHT22;43561;50.090;18.522;2024-03-23T11:55:29;20.90;51.20
57719;DHT22;43561;50.090;18.522;2024-03-23T12:05:34;20.70;50.60
57719;DHT22;43561;50.090;18.522;2024-03-23T12:15:35;20.60;51.30
57719;DHT22;43561;50.090;18.522;2024-03-23T12:25:36;20.70;50.80
57719;DHT22;43561;50.090;18.522;2024-03-23T12:35:38;20.70;50.60
57719;DHT22;43561;50.090;18.522;2024-03-23T12:45:39;20.40;50.60
57719;DHT22;43561;50.090;18.522;2024-03-23T12:55:40;20.60;51.10
57719;DHT22;43561;50.090;18.522;2024-03-23T13:05:43;20.20;51.40
57719;DHT22;43561;50.090;18.522;2024-03-23T13:15:51;19.80;51.40
57719;DHT22;43561;50.090;18.522;2024-03-23T13:25:54;19.20;52.70
57719;DHT22;43561;50.090;18.522;2024-03-23T13:35:56;18.50;57.50
57719;DHT22;43561;50.090;18.522;2024-03-23T13:45:58;13.70;99.90
57719;DHT22;43561;50.090;18.522;2024-03-23T13:56:00;12.70;99.90
57719;DHT22;43561;50.090;18.522;2024-03-23T14:06:01;12.70;99.90
57719;DHT22;43561;50.090;18.522;2024-03-23T14:16:03;12.70;99.90
57719;DHT22;43561;50.090;18.522;2024-03-23T14:26:06;12.90;99.90
57719;DHT22;43561;50.090;18.522;2024-03-23T14:36:07;13.20;99.90
57719;DHT22;43561;50.090;18.522;2024-03-23T14:46:10;12.70;99.90
57719;DHT22;43561;50.090;18.522;2024-03-23T14:56:12;12.80;99.90
57719;DHT22;43561;50.090;18.522;2024-03-23T15:06:13;12.80;99.90
57719;DHT22;43561;50.090;18.522;2024-03-23T15:16:17;12.60;99.90
57719;DHT22;43561;50.090;18.522;2024-03-23T15:26:18;12.40;99.90
57719;DHT22;43561;50.090;18.522;2024-03-23T15:36:19;12.40;99.90
57719;DHT22;43561;50.090;18.522;2024-03-23T15:46:20;12.20;99.90
57719;DHT22;43561;50.090;18.522;2024-03-23T15:56:21;12.10;99.90
57719;DHT22;43561;50.090;18.522;2024-03-23T16:06:23;12.10;99.90
57719;DHT22;43561;50.090;18.522;2024-03-23T16:16:24;11.80;99.90
57719;DHT22;43561;50.090;18.522;2024-03-23T16:26:25;11.70;99.90
57719;DHT22;43561;50.090;18.522;2024-03-23T16:36:26;8.50;99.90
57719;DHT22;43561;50.090;18.522;2024-03-23T16:46:28;8.00;99.90
57719;DHT22;43561;50.090;18.522;2024-03-23T16:56:29;7.30;99.90
57719;DHT22;43561;50.090;18.522;2024-03-23T17:06:30;7.10;99.90
57719;DHT22;43561;50.090;18.522;2024-03-23T17:16:31;7.00;99.90
57719;DHT22;43561;50.090;18.522;2024-03-23T17:26:33;6.90;99.90
57719;DHT22;43561;50.090;18.522;2024-03-23T17:36:34;6.50;99.90
57719;DHT22;43561;50.090;18.522;2024-03-23T17:46:35;6.50;99.90
57719;DHT22;43561;50.090;18.522;2024-03-23T17:56:36;6.30;99.90
57719;DHT22;43561;50.090;18.522;2024-03-23T18:06:37;6.10;99.90
57719;DHT22;43561;50.090;18.522;2024-03-23T18:16:38;6.00;99.90
57719;DHT22;43561;50.090;18.522;2024-03-23T18:26:39;6.00;99.90
57719;DHT22;43561;50.090;18.522;2024-03-23T18:36:41;5.70;99.90
57719;DHT22;43561;50.090;18.522;2024-03-23T18:46:42;5.70;99.90
57719;DHT22;43561;50.090;18.522;2024-03-23T18:56:43;5.60;99.90
57719;DHT22;43561;50.090;18.522;2024-03-23T19:06:44;5.50;99.90
57719;DHT22;43561;50.090;18.522;2024-03-23T19:16:45;5.70;99.90
57719;DHT22;43561;50.090;18.522;2024-03-23T19:26:46;5.50;99.90
57719;DHT22;43561;50.090;18.522;2024-03-23T19:36:48;5.50;99.90
57719;DHT22;43561;50.090;18.522;2024-03-23T19:46:49;5.50;99.90
57719;DHT22;43561;50.090;18.522;2024-03-23T19:56:50;5.50;99.90
57719;DHT22;43561;50.090;18.522;2024-03-23T20:06:51;5.40;99.90
57719;DHT22;43561;50.090;18.522;2024-03-23T20:16:52;5.40;99.90
57719;DHT22;43561;50.090;18.522;2024-03-23T20:26:54;5.30;99.90
57719;DHT22;43561;50.090;18.522;2024-03-23T20:36:56;5.20;99.90
57719;DHT22;43561;50.090;18.522;2024-03-23T20:46:57;5.20;99.90
57719;DHT22;43561;50.090;18.522;2024-03-23T20:56:58;5.30;99.90
57719;DHT22;43561;50.090;18.522;2024-03-23T21:07:00;5.40;99.90
57719;DHT22;43561;50.090;18.522;2024-03-23T21:17:01;5.50;99.90
57719;DHT22;43561;50.090;18.522;2024-03-23T21:27:02;5.40;99.90
57719;DHT22;43561;50.090;18.522;2024-03-23T21:37:03;5.50;99.90
57719;DHT22;43561;50.090;18.522;2024-03-23T21:47:04;5.30;99.90
57719;DHT22;43561;50.090;18.522;2024-03-23T21:57:06;5.20;99.90
57719;DHT22;43561;50.090;18.522;2024-03-23T22:07:07;5.20;99.90
57719;DHT22;43561;50.090;18.522;2024-03-23T22:17:08;5.10;99.90
57719;DHT22;43561;50.090;18.522;2024-03-23T22:27:09;5.20;99.90
57719;DHT22;43561;50.090;18.522;2024-03-23T22:37:10;5.10;99.90
57719;DHT22;43561;50.090;18.522;2024-03-23T22:47:12;5.10;99.90
57719;DHT22;43561;50.090;18.522;2024-03-23T22:57:14;5.00;99.90
57719;DHT22;43561;50.090;18.522;2024-03-23T23:07:15;5.00;99.90
57719;DHT22;43561;50.090;18.522;2024-03-23T23:17:16;4.80;99.90
57719;DHT22;43561;50.090;18.522;2024-03-23T23:27:17;4.90;99.90
57719;DHT22;43561;50.090;18.522;2024-03-23T23:37:19;4.90;99.90
57719;DHT22;43561;50.090;18.522;2024-03-23T23:47:21;4.90;99.90
57719;DHT22;43561;50.090;18.522;2024-03-23T23:57:22;4.90;99.90
